Time;durP1;ratioP1;P1;durP2;ratioP2;P2;SDS_P1;SDS_P2;PMS_P1;PMS_P2;Temp;Humidity;BMP_temperature;BMP_pressure;BME280_temperature;BME280_humidity;BME280_pressure;Samples;Min_cycle;Max_cycle;Signal;HPM_P1;HPM_P2
2022/03/05 00:01:14;;;;;;;9.73;5.85;;;0.60;90.90;;;;;;5023562;28;20033;-67
2022/03/05 00:03:40;;;;;;;7.82;5.00;;;0.60;90.80;;;;;;5023534;28;20044;-68
2022/03/05 00:06:06;;;;;;;11.20;6.15;;;0.50;90.90;;;;;;5023398;28;20489;-68
2022/03/05 00:08:31;;;;;;;12.60;5.55;;;0.50;91.10;;;;;;5023152;28;20037;-68
2022/03/05 00:10:57;;;;;;;10.50;6.30;;;0.50;91.30;;;;;;5024011;28;20041;-68
2022/03/05 00:13:23;;;;;;;13.77;5.63;;;0.50;91.30;;;;;;5023633;28;20129;-68
2022/03/05 00:15:49;;;;;;;9.98;5.40;;;0.40;91.20;;;;;;5022207;28;20559;-68
2022/03/05 00:18:15;;;;;;;10.77;5.10;;;0.40;91.20;;;;;;5022635;28;20029;-68
2022/03/05 00:20:42;;;;;;;13.45;5.53;;;0.30;91.40;;;;;;5022998;28;20104;-67
2022/03/05 00:23:08;;;;;;;12.82;5.40;;;0.30;91.50;;;;;;5022901;28;20036;-68
2022/03/05 00:25:33;;;;;;;9.48;5.38;;;0.30;91.50;;;;;;5022798;28;20498;-68
2022/03/05 00:27:59;;;;;;;10.38;5.70;;;0.20;91.50;;;;;;5023190;28;20061;-69
2022/03/05 00:30:25;;;;;;;10.75;5.45;;;0.20;91.60;;;;;;5023066;28;20041;-77
2022/03/05 00:32:51;;;;;;;10.95;5.70;;;0.10;91.60;;;;;;5022046;28;20746;-69
2022/03/05 00:35:17;;;;;;;9.85;5.60;;;0.10;91.60;;;;;;5022675;28;20468;-69
2022/03/05 00:37:43;;;;;;;12.40;5.15;;;0.10;91.60;;;;;;5022284;28;20057;-66
2022/03/05 00:40:09;;;;;;;12.88;5.35;;;0.10;91.70;;;;;;5021784;28;20200;-69
2022/03/05 00:42:35;;;;;;;11.00;5.07;;;0.10;91.90;;;;;;5022603;28;20037;-69
2022/03/05 00:45:01;;;;;;;7.82;5.32;;;0.10;92.00;;;;;;5022378;28;20049;-69
2022/03/05 00:47:27;;;;;;;11.82;5.47;;;0.00;92.30;;;;;;5022134;28;20797;-69
2022/03/05 00:49:53;;;;;;;9.30;4.72;;;0.00;92.00;;;;;;5021013;28;20025;-69
2022/03/05 00:52:20;;;;;;;9.10;4.72;;;0.00;92.00;;;;;;5022766;28;20041;-69
2022/03/05 00:54:46;;;;;;;10.88;5.85;;;-0.10;92.00;;;;;;5022646;28;20033;-69
2022/03/05 00:57:12;;;;;;;10.27;5.22;;;-0.10;92.20;;;;;;5022179;28;20405;-69
2022/03/05 00:59:40;;;;;;;9.75;5.45;;;-0.10;92.30;;;;;;5022652;28;20025;-70
2022/03/05 01:02:05;;;;;;;8.88;4.50;;;-0.10;92.30;;;;;;5029838;28;20021;-70
2022/03/05 01:04:31;;;;;;;12.63;5.28;;;-0.20;92.40;;;;;;5022670;28;20029;-69
2022/03/05 01:06:58;;;;;;;8.38;4.88;;;-0.20;92.20;;;;;;5021663;28;20594;-70
2022/03/05 01:09:24;;;;;;;11.18;4.85;;;-0.20;92.10;;;;;;5023176;28;20120;-73
2022/03/05 01:11:50;;;;;;;11.95;5.40;;;-0.30;92.20;;;;;;5022871;28;20128;-74
2022/03/05 01:14:16;;;;;;;12.65;4.90;;;-0.30;92.30;;;;;;5022660;28;20075;-73
2022/03/05 01:16:42;;;;;;;11.10;5.68;;;-0.30;92.40;;;;;;5022087;28;20108;-73
2022/03/05 01:19:07;;;;;;;11.85;6.22;;;-0.30;92.40;;;;;;5022962;28;20108;-73
2022/03/05 01:21:33;;;;;;;10.52;6.10;;;-0.30;92.50;;;;;;5022539;28;20064;-73
2022/03/05 01:23:59;;;;;;;11.48;5.32;;;-0.30;92.60;;;;;;5022755;28;20503;-74
2022/03/05 01:26:28;;;;;;;15.75;5.75;;;-0.30;92.60;;;;;;5022274;28;20101;-74
2022/03/05 01:28:54;;;;;;;9.63;5.63;;;-0.30;92.60;;;;;;5021814;28;20060;-74
2022/03/05 01:31:20;;;;;;;12.40;5.82;;;-0.20;92.80;;;;;;5022534;28;20723;-74
2022/03/05 01:33:45;;;;;;;9.30;6.03;;;-0.30;92.60;;;;;;5022216;28;20033;-73
2022/03/05 01:36:11;;;;;;;16.48;6.65;;;-0.30;92.60;;;;;;5021295;28;20037;-74
2022/03/05 01:38:37;;;;;;;11.13;6.22;;;-0.20;92.60;;;;;;5022063;28;20143;-73
2022/03/05 01:41:03;;;;;;;10.75;5.95;;;-0.20;92.60;;;;;;5022235;28;20450;-73
2022/03/05 01:43:28;;;;;;;15.20;6.22;;;-0.30;92.60;;;;;;5022096;28;20489;-74
2022/03/05 01:45:54;;;;;;;9.45;5.57;;;-0.30;92.70;;;;;;5021468;28;20029;-74
2022/03/05 01:48:20;;;;;;;12.18;6.22;;;-0.30;92.70;;;;;;5022038;28;20591;-74
2022/03/05 01:50:47;;;;;;;11.18;5.68;;;-0.40;92.80;;;;;;5021016;28;20500;-73
2022/03/05 01:53:13;;;;;;;14.43;6.18;;;-0.40;92.80;;;;;;5021025;28;20038;-73
2022/03/05 01:55:40;;;;;;;13.50;6.10;;;-0.40;92.80;;;;;;5019260;28;20037;-73
2022/03/05 01:58:06;;;;;;;10.70;5.85;;;-0.40;92.90;;;;;;5019178;28;20029;-74
2022/03/05 02:00:32;;;;;;;11.45;5.57;;;-0.40;93.00;;;;;;5019261;28;20032;-74
2022/03/05 02:02:58;;;;;;;11.68;6.38;;;-0.40;92.90;;;;;;5022441;28;20067;-75
2022/03/05 02:05:23;;;;;;;12.68;6.35;;;-0.40;92.90;;;;;;5019080;28;20135;-74
2022/03/05 02:07:49;;;;;;;11.15;4.80;;;-0.50;92.50;;;;;;5020611;28;20041;-74
2022/03/05 02:17:50;;;;;;;13.95;5.28;;;-0.70;92.40;;;;;;5002633;28;20036;-74
2022/03/05 02:20:16;;;;;;;8.75;5.03;;;-0.80;92.60;;;;;;5019216;28;20033;-76
2022/03/05 02:22:42;;;;;;;11.27;5.57;;;-0.80;92.70;;;;;;5021120;28;20561;-76
2022/03/05 02:25:09;;;;;;;8.30;5.45;;;-0.80;92.70;;;;;;5020333;28;20072;-76
2022/03/05 02:27:34;;;;;;;9.95;5.95;;;-0.80;92.60;;;;;;5021090;28;20049;-75
2022/03/05 02:30:00;;;;;;;10.55;5.53;;;-0.90;92.60;;;;;;5018327;28;20042;-76
2022/03/05 02:32:26;;;;;;;9.43;6.00;;;-0.90;92.60;;;;;;5019004;28;20466;-76
2022/03/05 02:34:52;;;;;;;12.70;6.30;;;-0.90;92.70;;;;;;5020132;28;20029;-76
2022/03/05 02:37:20;;;;;;;11.95;6.53;;;-0.90;92.90;;;;;;5020824;28;20411;-76
2022/03/05 02:39:47;;;;;;;13.32;5.97;;;-1.00;92.80;;;;;;5019684;28;20029;-74
2022/03/05 02:42:15;;;;;;;13.10;6.28;;;-1.00;92.90;;;;;;5017360;28;20056;-74
2022/03/05 02:44:41;;;;;;;13.45;5.78;;;-1.00;92.90;;;;;;5024918;28;20025;-76
2022/03/05 02:47:07;;;;;;;12.18;5.97;;;-1.00;92.80;;;;;;5024242;28;20033;-76
2022/03/05 02:49:32;;;;;;;12.57;6.28;;;-1.00;92.80;;;;;;5025742;28;20029;-76
2022/03/05 02:51:58;;;;;;;14.80;6.32;;;-1.00;92.90;;;;;;5025435;28;20041;-76
2022/03/05 02:54:25;;;;;;;11.98;5.85;;;-1.10;93.00;;;;;;5023374;28;20501;-76
2022/03/05 02:56:51;;;;;;;10.07;6.47;;;-1.10;92.90;;;;;;5024321;28;20030;-76
2022/03/05 02:59:17;;;;;;;9.55;5.40;;;-1.10;92.80;;;;;;5025821;28;20029;-75
2022/03/05 03:01:42;;;;;;;15.27;5.68;;;-1.20;92.80;;;;;;5024542;28;20576;-75
2022/03/05 03:04:08;;;;;;;9.13;5.53;;;-1.20;93.30;;;;;;5026269;28;20512;-76
2022/03/05 03:06:34;;;;;;;10.20;6.53;;;-1.20;93.10;;;;;;5025396;28;20037;-76
2022/03/05 03:08:59;;;;;;;11.18;6.20;;;-1.20;93.20;;;;;;5024624;28;20030;-76
2022/03/05 03:11:25;;;;;;;13.23;6.25;;;-1.20;93.40;;;;;;5025071;28;20037;-76
2022/03/05 03:13:51;;;;;;;14.05;6.07;;;-1.20;93.50;;;;;;5025089;28;20029;-76
2022/03/05 03:16:16;;;;;;;11.73;5.47;;;-1.10;93.60;;;;;;5024706;28;20413;-75
2022/03/05 03:18:42;;;;;;;8.73;5.43;;;-1.10;93.60;;;;;;5025174;28;20041;-76
2022/03/05 03:21:09;;;;;;;11.20;5.15;;;-1.00;93.70;;;;;;5023449;28;20823;-76
2022/03/05 03:23:34;;;;;;;18.35;6.13;;;-1.00;93.80;;;;;;5024432;28;20072;-76
2022/03/05 03:26:01;;;;;;;9.80;5.53;;;-1.00;93.20;;;;;;5020917;28;20095;-74
2022/03/05 03:28:26;;;;;;;9.27;4.82;;;-1.10;93.00;;;;;;5025144;28;20045;-76
2022/03/05 03:30:52;;;;;;;11.48;5.45;;;-1.20;93.00;;;;;;5025051;28;20029;-75
2022/03/05 03:33:18;;;;;;;8.52;5.07;;;-1.30;92.90;;;;;;5024989;28;20386;-76
2022/03/05 03:35:44;;;;;;;10.18;5.45;;;-1.30;92.90;;;;;;5024306;28;20025;-75
2022/03/05 03:38:09;;;;;;;11.80;5.72;;;-1.40;92.90;;;;;;5024559;28;20113;-71
2022/03/05 03:40:35;;;;;;;10.18;4.72;;;-1.40;93.00;;;;;;5023976;28;20033;-71
2022/03/05 03:43:01;;;;;;;12.15;5.82;;;-1.40;93.10;;;;;;5024669;28;20037;-71
2022/03/05 03:45:26;;;;;;;11.20;6.03;;;-1.40;93.30;;;;;;5024129;28;20060;-71
2022/03/05 03:47:53;;;;;;;7.82;5.05;;;-1.30;93.30;;;;;;5031086;28;20038;-71
2022/03/05 03:50:22;;;;;;;10.95;4.80;;;-1.40;93.20;;;;;;5024122;28;20049;-71
2022/03/05 03:52:47;;;;;;;10.65;5.47;;;-1.40;93.10;;;;;;5023469;28;20037;-71
2022/03/05 03:55:16;;;;;;;12.52;5.63;;;-1.50;93.20;;;;;;5023517;28;20091;-71
2022/03/05 03:57:43;;;;;;;13.13;5.68;;;-1.50;93.30;;;;;;5024067;28;20108;-71
2022/03/05 04:00:12;;;;;;;9.25;5.20;;;-1.50;93.10;;;;;;5020584;28;20043;-71
2022/03/05 04:02:38;;;;;;;10.20;5.72;;;-1.50;93.20;;;;;;5023547;28;20052;-71
2022/03/05 04:05:05;;;;;;;10.60;5.60;;;-1.50;93.00;;;;;;5023663;28;20128;-71
2022/03/05 04:10:15;;;;;;;8.40;5.07;;;-1.60;92.80;;;;;;5021119;28;20034;-71
2022/03/05 04:12:41;;;;;;;10.77;5.43;;;-1.70;92.80;;;;;;5022335;28;20401;-69
2022/03/05 04:15:07;;;;;;;11.65;5.28;;;-1.70;93.10;;;;;;5023404;28;20091;-71
2022/03/05 04:17:33;;;;;;;12.38;5.40;;;-1.70;93.00;;;;;;5023472;28;20025;-71
2022/03/05 04:19:59;;;;;;;8.82;5.32;;;-1.70;92.90;;;;;;5023580;28;20040;-71
2022/03/05 04:22:25;;;;;;;11.70;5.57;;;-1.70;92.80;;;;;;5023552;28;20909;-70
2022/03/05 04:24:50;;;;;;;10.23;5.82;;;-1.70;92.60;;;;;;5021787;28;20043;-71
2022/03/05 04:27:16;;;;;;;9.77;5.15;;;-1.80;92.80;;;;;;5023253;28;20033;-71
2022/03/05 04:29:42;;;;;;;9.57;5.70;;;-1.80;92.70;;;;;;5023697;28;20043;-71
2022/03/05 04:32:09;;;;;;;11.05;6.15;;;-1.80;92.80;;;;;;5023208;28;20033;-71
2022/03/05 04:34:35;;;;;;;13.90;5.47;;;-1.90;92.90;;;;;;5023197;28;20120;-71
2022/03/05 04:37:00;;;;;;;9.52;5.07;;;-1.90;93.20;;;;;;5022873;28;20033;-68
2022/03/05 04:39:26;;;;;;;10.07;5.35;;;-1.80;93.40;;;;;;5022474;28;20045;-71
2022/03/05 04:41:52;;;;;;;11.65;5.35;;;-1.80;93.70;;;;;;5023154;28;20030;-71
2022/03/05 04:44:18;;;;;;;7.82;4.32;;;-1.70;93.80;;;;;;5023131;28;20041;-71
2022/03/05 04:46:43;;;;;;;9.10;5.50;;;-1.60;93.90;;;;;;5022447;28;20037;-71
2022/03/05 04:49:09;;;;;;;11.52;5.45;;;-1.60;93.60;;;;;;5022470;28;20033;-71
2022/03/05 04:51:35;;;;;;;9.20;5.07;;;-1.60;93.50;;;;;;5022839;28;20137;-71
2022/03/05 04:54:01;;;;;;;10.48;5.45;;;-1.60;93.60;;;;;;5019318;28;20048;-71
2022/03/05 04:56:27;;;;;;;12.75;6.40;;;-1.60;93.60;;;;;;5021387;28;20485;-71
2022/03/05 04:58:53;;;;;;;16.45;7.95;;;-1.70;93.40;;;;;;5022406;28;20134;-71
2022/03/05 05:01:19;;;;;;;19.00;7.95;;;-1.70;93.40;;;;;;5024207;28;20021;-71
2022/03/05 05:03:45;;;;;;;13.50;6.97;;;-1.70;93.40;;;;;;5021669;28;20466;-71
2022/03/05 05:06:11;;;;;;;19.00;7.68;;;-1.80;93.40;;;;;;5021280;28;20754;-71
2022/03/05 05:08:38;;;;;;;11.75;6.60;;;-1.80;93.60;;;;;;5022525;28;20048;-71
2022/03/05 05:11:04;;;;;;;12.38;5.10;;;-1.70;93.80;;;;;;5021605;28;20036;-71
2022/03/05 05:13:30;;;;;;;13.02;6.60;;;-1.60;94.00;;;;;;5022329;28;20037;-71
2022/03/05 05:15:57;;;;;;;9.52;5.22;;;-1.60;93.90;;;;;;5021562;28;20040;-70
2022/03/05 05:18:23;;;;;;;14.77;6.35;;;-1.60;93.40;;;;;;5022439;28;20033;-70
2022/03/05 05:20:48;;;;;;;15.82;6.80;;;-1.70;93.30;;;;;;5022731;28;20045;-70
2022/03/05 05:23:14;;;;;;;10.68;6.07;;;-1.70;93.40;;;;;;5021657;28;20060;-70
2022/03/05 05:25:40;;;;;;;9.38;5.57;;;-1.80;93.30;;;;;;5022105;28;20513;-70
2022/03/05 05:28:06;;;;;;;16.08;6.55;;;-1.80;93.00;;;;;;5021647;28;20564;-70
2022/03/05 05:30:31;;;;;;;9.60;6.00;;;-1.90;92.90;;;;;;5021649;28;20064;-70
2022/03/05 05:32:57;;;;;;;10.45;4.97;;;-1.90;93.10;;;;;;5021336;28;20167;-70
2022/03/05 05:35:23;;;;;;;9.02;4.75;;;-1.90;93.50;;;;;;5022086;28;20064;-70
2022/03/05 05:37:49;;;;;;;13.20;5.45;;;-1.90;93.30;;;;;;5023814;28;20028;-70
2022/03/05 05:40:14;;;;;;;10.90;5.57;;;-1.90;93.40;;;;;;5022151;28;20044;-70
2022/03/05 05:42:41;;;;;;;10.52;5.20;;;-1.90;93.10;;;;;;5021858;28;20068;-71
2022/03/05 05:45:09;;;;;;;11.52;5.22;;;-1.90;93.20;;;;;;5020877;28;20116;-70
2022/03/05 05:47:35;;;;;;;10.73;5.40;;;-1.90;93.20;;;;;;5021495;28;20084;-71
2022/03/05 05:50:01;;;;;;;11.27;5.57;;;-1.90;92.80;;;;;;5021343;28;20730;-71
2022/03/05 05:52:26;;;;;;;12.07;5.38;;;-2.00;92.80;;;;;;5017870;28;20037;-70
2022/03/05 05:54:52;;;;;;;12.63;5.32;;;-2.00;92.70;;;;;;5021571;28;20037;-71
2022/03/05 05:57:18;;;;;;;7.82;5.07;;;-2.00;92.80;;;;;;5021226;28;20497;-70
2022/03/05 05:59:43;;;;;;;7.65;5.10;;;-2.00;92.70;;;;;;5021291;28;20036;-70
2022/03/05 06:02:09;;;;;;;12.98;6.07;;;-1.90;92.60;;;;;;5021152;28;20705;-71
2022/03/05 06:04:35;;;;;;;10.70;5.72;;;-1.90;92.40;;;;;;5021809;28;20079;-70
2022/03/05 06:07:01;;;;;;;11.77;5.80;;;-1.90;92.40;;;;;;5018799;28;20051;-70
2022/03/05 06:09:26;;;;;;;13.60;6.32;;;-1.90;92.20;;;;;;5023375;28;20560;-70
2022/03/05 06:11:53;;;;;;;11.38;5.53;;;-1.90;91.90;;;;;;5021054;28;20033;-70
2022/03/05 06:14:19;;;;;;;14.30;5.72;;;-2.00;91.80;;;;;;5020053;28;20041;-70
2022/03/05 06:16:45;;;;;;;15.00;6.53;;;-1.90;91.90;;;;;;5020063;28;20905;-70
2022/03/05 06:19:10;;;;;;;19.20;5.93;;;-1.90;92.00;;;;;;5021430;28;20033;-70
2022/03/05 06:21:37;;;;;;;11.27;5.50;;;-1.80;91.90;;;;;;5020842;28;20076;-70
2022/03/05 06:24:03;;;;;;;10.85;6.20;;;-1.80;91.80;;;;;;5020863;28;20545;-70
2022/03/05 06:26:30;;;;;;;9.50;5.75;;;-1.70;91.80;;;;;;5019410;28;20124;-71
2022/03/05 06:28:56;;;;;;;10.65;5.72;;;-1.70;92.10;;;;;;5020460;28;20033;-70
2022/03/05 06:31:22;;;;;;;13.52;6.28;;;-1.60;91.80;;;;;;5021431;28;20665;-70
2022/03/05 06:33:48;;;;;;;11.95;6.22;;;-1.60;91.70;;;;;;5020799;28;20041;-70
2022/03/05 06:36:13;;;;;;;17.92;6.47;;;-1.50;91.80;;;;;;5020349;28;20550;-71
2022/03/05 06:38:39;;;;;;;14.88;6.50;;;-1.40;91.80;;;;;;5019949;28;20037;-71
2022/03/05 06:41:05;;;;;;;16.98;7.40;;;-1.40;91.70;;;;;;5019651;28;20021;-71
2022/03/05 06:43:31;;;;;;;13.98;6.97;;;-1.30;91.70;;;;;;5020093;28;20029;-70
2022/03/05 06:45:56;;;;;;;12.57;6.85;;;-1.20;91.60;;;;;;5017028;28;20810;-70
2022/03/05 06:48:22;;;;;;;10.68;6.35;;;-1.10;91.50;;;;;;5016953;28;20041;-70
2022/03/05 06:50:48;;;;;;;15.00;7.80;;;-1.10;91.40;;;;;;5019967;28;20112;-70
2022/03/05 06:53:14;;;;;;;16.02;7.38;;;-1.00;91.10;;;;;;5021039;28;20037;-71
2022/03/05 06:55:39;;;;;;;14.27;7.25;;;-0.90;91.10;;;;;;5020500;28;20481;-70
2022/03/05 06:58:05;;;;;;;9.88;6.32;;;-0.80;90.80;;;;;;5020458;28;20025;-71
2022/03/05 07:00:31;;;;;;;15.50;7.28;;;-0.70;90.80;;;;;;5020586;28;20834;-70
2022/03/05 07:02:57;;;;;;;9.68;6.43;;;-0.60;90.70;;;;;;5020657;28;20568;-70
2022/03/05 07:05:23;;;;;;;17.30;7.28;;;-0.50;90.80;;;;;;5020662;28;20060;-70
2022/03/05 07:07:48;;;;;;;13.20;7.00;;;-0.40;90.80;;;;;;5020303;28;20142;-71
2022/03/05 07:10:14;;;;;;;14.70;8.13;;;-0.20;90.70;;;;;;5023426;28;20508;-69
2022/03/05 07:12:40;;;;;;;14.82;6.93;;;-0.20;90.50;;;;;;5016189;28;20813;-71
2022/03/05 07:15:07;;;;;;;16.73;7.68;;;0.00;90.50;;;;;;5019332;28;20045;-71
2022/03/05 07:17:33;;;;;;;11.43;6.88;;;0.10;90.50;;;;;;5016911;28;20041;-71
2022/03/05 07:19:58;;;;;;;14.50;6.70;;;0.20;90.40;;;;;;5020566;28;20036;-71
2022/03/05 07:22:24;;;;;;;15.00;7.40;;;0.40;90.30;;;;;;5020089;28;20029;-71
2022/03/05 07:24:50;;;;;;;13.98;7.30;;;0.50;90.20;;;;;;5020201;28;20068;-69
2022/03/05 07:27:16;;;;;;;16.65;7.45;;;0.60;90.10;;;;;;5017153;28;20120;-72
2022/03/05 07:29:43;;;;;;;14.82;7.70;;;0.70;90.10;;;;;;5023690;28;20069;-71
2022/03/05 07:32:10;;;;;;;16.25;7.47;;;0.80;90.10;;;;;;5025411;28;20021;-72
2022/03/05 07:34:36;;;;;;;11.38;6.90;;;1.00;90.00;;;;;;5024323;28;20033;-72
2022/03/05 07:37:03;;;;;;;14.60;7.53;;;1.10;90.00;;;;;;5025716;28;20799;-71
2022/03/05 07:39:29;;;;;;;14.25;7.78;;;1.30;90.10;;;;;;5025174;28;20036;-72
2022/03/05 07:41:55;;;;;;;19.42;8.38;;;1.40;90.00;;;;;;5016120;28;20113;-71
2022/03/05 07:44:21;;;;;;;18.00;8.35;;;1.70;90.10;;;;;;5022293;28;20029;-72
2022/03/05 07:46:47;;;;;;;13.73;7.82;;;2.10;90.00;;;;;;5023643;28;20043;-72
2022/03/05 07:49:13;;;;;;;14.93;7.13;;;3.50;87.20;;;;;;5023404;28;20030;-69
2022/03/05 07:51:39;;;;;;;17.00;7.07;;;6.90;74.00;;;;;;5024038;28;20877;-70
2022/03/05 07:54:05;;;;;;;11.73;6.13;;;10.50;57.60;;;;;;5023651;28;20465;-70
2022/03/05 07:56:31;;;;;;;11.52;6.18;;;12.70;50.20;;;;;;5023271;28;20041;-70
2022/03/05 07:58:57;;;;;;;10.85;5.75;;;14.50;44.90;;;;;;5023084;28;20106;-70
2022/03/05 08:01:23;;;;;;;13.52;6.10;;;16.30;41.10;;;;;;5024247;28;20041;-70
2022/03/05 08:03:48;;;;;;;11.13;6.40;;;17.50;38.80;;;;;;5023904;28;20037;-70
2022/03/05 08:06:14;;;;;;;14.98;6.25;;;17.50;36.80;;;;;;5023277;28;20091;-74
2022/03/05 08:08:40;;;;;;;13.60;6.25;;;17.50;37.00;;;;;;5019873;28;20029;-68
2022/03/05 08:11:06;;;;;;;11.70;6.53;;;17.10;37.30;;;;;;5023427;28;20022;-70
2022/03/05 08:13:32;;;;;;;11.73;6.70;;;15.90;40.00;;;;;;5023422;28;20507;-70
2022/03/05 08:15:57;;;;;;;12.68;6.88;;;14.90;41.10;;;;;;5022860;28;20041;-70
2022/03/05 08:18:23;;;;;;;15.05;7.20;;;13.70;43.00;;;;;;5023958;28;20787;-69
2022/03/05 08:20:49;;;;;;;13.98;6.93;;;12.40;46.30;;;;;;5023197;28;20034;-69
2022/03/05 08:23:15;;;;;;;12.05;7.30;;;11.60;47.90;;;;;;5023179;28;20025;-69
2022/03/05 08:25:41;;;;;;;11.98;6.88;;;10.60;50.30;;;;;;5023296;28;20819;-68
2022/03/05 08:28:07;;;;;;;13.32;6.57;;;10.50;51.20;;;;;;5021656;28;20482;-68
2022/03/05 08:30:33;;;;;;;18.38;7.68;;;10.60;50.70;;;;;;5024095;28;20029;-67
2022/03/05 08:32:59;;;;;;;15.70;7.65;;;10.80;50.90;;;;;;5023303;28;20037;-68
2022/03/05 08:35:25;;;;;;;13.50;7.18;;;10.70;50.90;;;;;;5022709;28;20041;-68
2022/03/05 08:37:52;;;;;;;13.73;7.47;;;10.20;52.40;;;;;;5023578;28;20026;-68
2022/03/05 08:40:19;;;;;;;13.48;7.68;;;10.00;52.40;;;;;;5023089;28;20086;-68
2022/03/05 08:42:46;;;;;;;15.90;7.50;;;10.30;52.80;;;;;;5021092;28;20029;-77
2022/03/05 08:45:12;;;;;;;19.52;7.43;;;11.50;50.40;;;;;;5027380;28;20033;-68
2022/03/05 08:47:38;;;;;;;14.60;7.35;;;12.70;46.70;;;;;;5023013;28;20201;-68
2022/03/05 08:50:05;;;;;;;19.58;8.15;;;12.50;46.10;;;;;;5022327;28;20036;-68
2022/03/05 08:52:38;;;;;;;14.77;7.72;;;11.40;48.30;;;;;;5022916;28;20039;-68
2022/03/05 08:55:09;;;;;;;13.93;7.57;;;10.90;50.10;;;;;;5022219;28;20041;-67
2022/03/05 08:57:36;;;;;;;15.27;7.28;;;10.90;50.50;;;;;;5021573;28;20029;-68
2022/03/05 09:00:03;;;;;;;15.38;8.18;;;11.60;48.90;;;;;;5021827;28;20029;-69
2022/03/05 09:02:29;;;;;;;14.88;7.53;;;13.40;45.90;;;;;;5022450;28;20128;-76
2022/03/05 09:04:54;;;;;;;14.40;7.32;;;14.30;43.20;;;;;;5022021;28;20058;-71
2022/03/05 09:07:20;;;;;;;15.63;7.47;;;13.00;45.40;;;;;;5021905;28;20041;-70
2022/03/05 09:09:46;;;;;;;14.88;7.20;;;11.40;48.10;;;;;;5021760;28;20041;-69
2022/03/05 09:12:12;;;;;;;14.23;6.28;;;12.00;47.80;;;;;;5022286;28;20045;-71
2022/03/05 09:14:37;;;;;;;17.70;8.18;;;14.30;43.90;;;;;;5021851;28;20045;-71
2022/03/05 09:17:04;;;;;;;17.30;8.07;;;16.60;38.90;;;;;;5021295;28;20161;-71
2022/03/05 09:19:30;;;;;;;10.18;6.45;;;18.40;36.30;;;;;;5021601;28;20032;-70
2022/03/05 09:21:56;;;;;;;13.05;7.07;;;20.70;32.60;;;;;;5021807;28;20140;-71
2022/03/05 09:24:22;;;;;;;13.20;7.40;;;21.50;30.30;;;;;;5021009;28;20529;-69
2022/03/05 09:26:47;;;;;;;17.52;8.27;;;23.10;29.40;;;;;;5021431;28;21106;-68
2022/03/05 09:29:13;;;;;;;13.80;8.15;;;25.00;27.30;;;;;;5022419;28;20021;-70
2022/03/05 09:31:39;;;;;;;13.55;6.93;;;25.80;26.70;;;;;;5022222;28;20386;-70
2022/03/05 09:34:05;;;;;;;13.50;7.40;;;26.50;25.70;;;;;;5021868;28;20033;-73
2022/03/05 09:36:32;;;;;;;13.38;6.45;;;25.50;26.10;;;;;;5021647;28;20144;-69
2022/03/05 09:38:58;;;;;;;13.05;7.63;;;22.20;28.60;;;;;;5021670;28;20136;-69
2022/03/05 09:41:23;;;;;;;10.80;6.68;;;18.50;33.20;;;;;;5018763;28;20037;-69
2022/03/05 09:43:50;;;;;;;11.48;7.15;;;15.70;38.10;;;;;;5022444;28;20469;-69
2022/03/05 09:46:20;;;;;;;12.18;7.30;;;14.00;42.20;;;;;;5021774;28;20040;-69
2022/03/05 09:48:46;;;;;;;17.33;7.72;;;13.10;44.30;;;;;;5021341;28;20037;-69
2022/03/05 09:51:12;;;;;;;12.80;7.25;;;14.60;41.10;;;;;;5021162;28;20044;-69
2022/03/05 09:53:38;;;;;;;15.38;8.20;;;16.80;37.60;;;;;;5021658;28;20041;-69
2022/03/05 09:56:04;;;;;;;14.57;6.90;;;18.10;35.60;;;;;;5019490;28;20044;-73
2022/03/05 09:58:29;;;;;;;12.95;6.72;;;19.90;32.80;;;;;;5021704;28;20029;-71
2022/03/05 10:00:55;;;;;;;15.82;7.45;;;21.30;30.60;;;;;;5021715;28;20030;-71
2022/03/05 10:03:22;;;;;;;12.63;7.22;;;22.10;29.50;;;;;;5020166;28;20906;-72
2022/03/05 10:05:48;;;;;;;15.32;8.43;;;24.80;27.80;;;;;;5018142;28;20044;-71
2022/03/05 10:08:20;;;;;;;12.40;6.95;;;26.30;26.00;;;;;;5021359;28;20091;-72
2022/03/05 10:10:56;;;;;;;12.52;6.80;;;26.70;25.80;;;;;;5018865;28;20134;-71
2022/03/05 10:13:32;;;;;;;13.10;7.72;;;26.60;25.60;;;;;;5021653;28;20154;-71
2022/03/05 10:16:03;;;;;;;15.95;7.55;;;27.80;24.40;;;;;;5020312;28;20089;-71
2022/03/05 10:18:37;;;;;;;13.32;7.65;;;27.80;24.40;;;;;;5019242;28;20048;-71
2022/03/05 10:21:08;;;;;;;12.07;7.10;;;27.10;24.60;;;;;;5021421;28;20033;-71
2022/03/05 10:23:39;;;;;;;12.77;7.13;;;28.50;24.30;;;;;;5021212;28;20030;-71
2022/03/05 10:26:09;;;;;;;11.57;6.50;;;30.40;23.00;;;;;;5020437;28;20107;-71
2022/03/05 10:28:37;;;;;;;12.27;6.03;;;31.40;22.20;;;;;;5019084;28;20465;-72
2022/03/05 10:31:09;;;;;;;10.45;6.22;;;31.10;22.20;;;;;;5019709;28;20033;-68
2022/03/05 10:33:40;;;;;;;11.93;6.35;;;30.20;22.10;;;;;;5016959;28;20144;-70
2022/03/05 10:36:19;;;;;;;13.73;7.60;;;30.40;21.90;;;;;;5019487;28;20044;-70
2022/03/05 10:38:52;;;;;;;37.83;18.40;;;27.90;23.30;;;;;;5016652;28;20040;-71
2022/03/05 10:41:40;;;;;;;15.82;9.15;;;28.10;23.70;;;;;;5020677;28;20847;-70
2022/03/05 10:44:15;;;;;;;17.15;9.40;;;30.80;22.10;;;;;;5020953;28;20025;-69
2022/03/05 10:46:55;;;;;;;11.33;6.57;;;32.30;21.70;;;;;;5021109;28;20473;-67
2022/03/05 10:49:24;;;;;;;11.00;5.20;;;33.70;20.90;;;;;;5017335;28;20841;-67
2022/03/05 10:51:59;;;;;;;9.15;5.32;;;33.40;20.40;;;;;;5020758;28;20815;-72
2022/03/05 10:54:30;;;;;;;10.07;5.85;;;30.10;21.10;;;;;;5022877;28;20052;-69
2022/03/05 10:56:57;;;;;;;11.98;6.40;;;25.30;24.00;;;;;;5022169;28;20022;-77
2022/03/05 10:59:22;;;;;;;8.82;5.60;;;24.70;24.90;;;;;;5021081;28;20132;-72
2022/03/05 11:01:49;;;;;;;10.25;6.80;;;27.00;23.70;;;;;;5021044;28;20667;-71
2022/03/05 11:04:15;;;;;;;10.45;5.93;;;29.30;22.30;;;;;;5024239;28;20035;-71
2022/03/05 11:06:43;;;;;;;7.00;5.30;;;29.30;21.70;;;;;;5024750;28;20424;-71
2022/03/05 11:09:11;;;;;;;7.90;5.18;;;25.60;23.80;;;;;;5023193;28;20029;-70
2022/03/05 11:11:41;;;;;;;17.73;8.13;;;23.10;26.30;;;;;;5024611;28;20037;-71
2022/03/05 11:14:11;;;;;;;12.38;6.70;;;25.00;24.40;;;;;;5024404;28;20070;-71
2022/03/05 11:16:36;;;;;;;9.00;5.30;;;26.10;23.60;;;;;;5024209;28;20041;-71
2022/03/05 11:19:03;;;;;;;10.98;5.63;;;23.70;24.80;;;;;;5024364;28;20029;-71
2022/03/05 11:21:29;;;;;;;7.85;4.63;;;20.40;27.30;;;;;;5024884;28;20440;-70
2022/03/05 11:23:59;;;;;;;6.57;3.80;;;17.60;30.50;;;;;;5023421;28;20505;-70
2022/03/05 11:26:27;;;;;;;9.82;4.72;;;15.10;33.20;;;;;;5023735;28;20119;-77
2022/03/05 11:28:53;;;;;;;8.40;4.05;;;13.50;36.10;;;;;;5024060;28;20083;-69
2022/03/05 11:31:24;;;;;;;10.00;4.57;;;12.40;38.90;;;;;;5025017;28;20668;-69
2022/03/05 11:33:50;;;;;;;7.40;4.30;;;11.80;40.10;;;;;;5024310;28;20040;-69
2022/03/05 11:36:36;;;;;;;7.57;4.32;;;11.30;41.40;;;;;;5023977;28;20675;-69
2022/03/05 11:39:05;;;;;;;6.68;4.20;;;10.90;42.90;;;;;;5023511;28;20033;-67
2022/03/05 11:41:31;;;;;;;7.53;4.15;;;10.60;44.00;;;;;;5023350;28;20033;-70
2022/03/05 11:44:12;;;;;;;6.88;3.85;;;10.20;44.80;;;;;;5023509;28;20034;-68
2022/03/05 11:46:38;;;;;;;8.77;3.88;;;9.80;45.40;;;;;;5019987;28;20046;-70
2022/03/05 11:49:05;;;;;;;10.63;4.03;;;9.50;45.50;;;;;;5024761;28;20680;-69
2022/03/05 11:51:32;;;;;;;6.05;3.40;;;9.20;46.90;;;;;;5022090;28;20037;-70
2022/03/05 11:54:12;;;;;;;6.60;3.38;;;9.00;48.70;;;;;;5023378;28;20094;-70
2022/03/05 11:56:38;;;;;;;5.13;2.72;;;8.80;48.30;;;;;;5023450;28;20037;-72
2022/03/05 11:59:33;;;;;;;5.25;3.03;;;8.70;46.90;;;;;;5023403;28;20033;-69
2022/03/05 12:02:00;;;;;;;5.22;2.72;;;8.60;47.80;;;;;;5022117;28;20030;-68
2022/03/05 12:04:28;;;;;;;6.15;3.20;;;8.50;48.40;;;;;;5023573;28;20028;-70
2022/03/05 12:06:57;;;;;;;5.70;3.67;;;8.50;47.50;;;;;;5023245;28;20091;-70
2022/03/05 12:09:42;;;;;;;7.97;3.95;;;8.50;47.70;;;;;;5023147;28;20033;-70
2022/03/05 12:12:11;;;;;;;90.70;58.78;;;8.60;49.90;;;;;;5023695;28;20602;-71
2022/03/05 12:14:55;;;;;;;16.42;10.10;;;8.70;49.20;;;;;;5022678;28;20042;-71
2022/03/05 12:17:25;;;;;;;7.10;4.75;;;8.90;48.30;;;;;;5020355;28;20029;-70
2022/03/05 12:19:51;;;;;;;8.90;4.30;;;9.00;47.80;;;;;;5023726;28;20034;-70
2022/03/05 12:22:17;;;;;;;7.93;4.55;;;9.30;46.80;;;;;;5023821;28;20456;-70
2022/03/05 12:24:43;;;;;;;8.23;4.13;;;9.50;45.50;;;;;;5022874;28;20060;-70
2022/03/05 12:27:14;;;;;;;8.23;4.53;;;9.70;45.60;;;;;;5022964;28;20036;-70
2022/03/05 12:29:51;;;;;;;11.02;5.07;;;9.90;45.20;;;;;;5023534;28;20452;-70
2022/03/05 12:32:18;;;;;;;12.75;6.82;;;10.20;45.30;;;;;;5020958;28;20120;-70
2022/03/05 12:34:44;;;;;;;12.30;6.20;;;10.40;43.40;;;;;;5025577;28;20044;-70
2022/03/05 12:37:10;;;;;;;10.90;5.50;;;10.30;42.00;;;;;;5022207;28;20105;-71
2022/03/05 12:39:43;;;;;;;10.63;4.85;;;10.10;42.80;;;;;;5023330;28;20034;-70
2022/03/05 12:42:10;;;;;;;9.88;4.88;;;10.10;44.00;;;;;;5019796;28;20064;-71
2022/03/05 12:44:38;;;;;;;7.50;4.63;;;9.90;45.00;;;;;;5023535;28;20477;-70
2022/03/05 12:47:05;;;;;;;9.30;5.18;;;9.70;44.80;;;;;;5021812;28;20489;-70
2022/03/05 12:49:31;;;;;;;9.52;4.30;;;9.60;45.20;;;;;;5023380;28;20041;-71